createdAt,value
2018-08-12T00:00:11.491Z,97698.67
2018-08-12T00:02:40.642Z,97694.44
2018-08-12T00:05:10.011Z,97690.42
2018-08-12T00:07:39.211Z,97692.27
2018-08-12T00:10:10.224Z,97690.36
2018-08-12T00:12:39.491Z,97697.52
2018-08-12T00:15:10.985Z,97694.16
2018-08-12T00:17:40.225Z,97707.04
2018-08-12T00:25:33.702Z,97698.89
2018-08-12T00:28:05.938Z,97688.94
2018-08-12T00:44:57.244Z,97692.41
2018-08-12T00:47:26.358Z,97694.35
2018-08-12T00:49:55.475Z,97695.45
2018-08-12T00:52:24.589Z,97692.00
2018-08-12T00:54:53.763Z,97692.17
2018-08-12T00:57:22.805Z,97694.42
2018-08-12T01:00:09.893Z,97692.36
2018-08-12T01:02:39.268Z,97694.50
2018-08-12T01:05:11.709Z,97694.74
2018-08-12T01:07:41.327Z,97693.09
2018-08-12T01:10:12.720Z,97691.56
2018-08-12T01:12:42.214Z,97688.78
2018-08-12T01:15:27.310Z,97692.06
2018-08-12T01:17:56.617Z,97696.25
2018-08-12T01:20:26.916Z,97696.28
2018-08-12T01:22:56.318Z,97696.86
2018-08-12T01:25:25.679Z,97688.48
2018-08-12T01:27:54.934Z,97693.25
2018-08-12T01:30:24.131Z,97688.74
2018-08-12T01:32:53.447Z,97686.66
2018-08-12T01:35:22.594Z,97687.68
2018-08-12T01:37:51.883Z,97683.37
2018-08-12T01:40:21.116Z,97683.45
2018-08-12T01:42:50.302Z,97682.60
2018-08-12T01:45:20.833Z,97685.53
2018-08-12T01:47:50.127Z,97684.16
2018-08-12T01:50:20.970Z,97682.16
2018-08-12T01:52:55.746Z,97678.83
2018-08-12T01:55:25.103Z,97676.83
2018-08-12T01:57:54.281Z,97674.04
2018-08-12T02:00:23.488Z,97673.42
2018-08-12T02:02:52.696Z,97678.30
2018-08-12T02:11:03.976Z,97669.25
2018-08-12T02:16:23.341Z,97672.84
2018-08-12T02:19:07.142Z,97671.89
2018-08-12T02:21:36.362Z,97670.08
2018-08-12T02:24:05.449Z,97674.50
2018-08-12T02:26:35.057Z,97672.95
2018-08-12T02:29:04.258Z,97676.61
2018-08-12T02:32:05.550Z,97671.77
2018-08-12T02:34:35.478Z,97681.47
2018-08-12T02:37:04.750Z,97667.38
2018-08-12T02:39:34.365Z,97667.88
2018-08-12T02:42:03.792Z,97661.30
2018-08-12T02:44:32.971Z,97666.89
2018-08-12T02:47:02.088Z,97661.89
2018-08-12T02:49:31.810Z,97662.91
2018-08-12T02:52:00.978Z,97660.34
2018-08-12T02:54:30.061Z,97659.66
2018-08-12T02:56:59.143Z,97665.42
2018-08-12T02:59:28.318Z,97663.36
2018-08-12T03:01:57.353Z,97664.25
2018-08-12T03:04:31.267Z,97664.91
2018-08-12T03:07:13.152Z,97654.36
2018-08-12T03:09:49.803Z,97654.07
2018-08-12T03:12:19.036Z,97653.75
2018-08-12T03:14:55.864Z,97654.07
2018-08-12T03:17:36.113Z,97658.09
2018-08-12T03:20:19.358Z,97653.39
2018-08-12T03:22:48.943Z,97648.11
2018-08-12T03:25:45.133Z,97640.80
2018-08-12T03:28:14.922Z,97652.34
2018-08-12T03:30:44.123Z,97654.23
2018-08-12T03:33:13.258Z,97653.64
2018-08-12T03:35:42.437Z,97646.51
2018-08-12T03:38:11.953Z,97653.32
2018-08-12T03:40:57.028Z,97653.91
2018-08-12T03:43:26.219Z,97654.55
2018-08-12T03:45:55.353Z,97660.30
2018-08-12T03:48:24.533Z,97657.95
2018-08-12T03:50:53.609Z,97652.50
2018-08-12T03:53:22.658Z,97656.34
2018-08-12T03:55:51.648Z,97656.59
2018-08-12T03:58:20.808Z,97660.73
2018-08-12T04:00:49.843Z,97659.44
2018-08-12T04:03:19.427Z,97657.09
2018-08-12T04:05:48.531Z,97659.05
2018-08-12T04:08:17.596Z,97657.69
2018-08-12T04:10:46.571Z,97657.41
2018-08-12T04:13:15.925Z,97658.77
2018-08-12T04:15:45.022Z,97660.18
2018-08-12T04:18:14.047Z,97658.12
2018-08-12T04:20:43.146Z,97657.93
2018-08-12T04:23:12.138Z,97651.09
2018-08-12T04:25:41.171Z,97648.44
2018-08-12T04:28:10.749Z,97657.93
2018-08-12T04:30:39.741Z,97654.55
2018-08-12T04:33:09.250Z,97661.51
2018-08-12T04:35:38.395Z,97665.55
2018-08-12T04:38:07.480Z,97665.88
2018-08-12T04:40:36.744Z,97668.09
2018-08-12T04:43:06.055Z,97670.61
2018-08-12T04:45:35.158Z,97671.75
2018-08-12T04:48:04.320Z,97668.94
2018-08-12T04:50:33.458Z,97679.47
2018-08-12T04:53:02.590Z,97679.94
2018-08-12T04:55:31.561Z,97679.14
2018-08-12T04:58:00.624Z,97679.52
2018-08-12T05:00:29.803Z,97684.23
2018-08-12T05:02:58.894Z,97678.59
2018-08-12T05:05:28.057Z,97686.63
2018-08-12T05:07:57.228Z,97687.98
2018-08-12T05:10:26.797Z,97686.10
2018-08-12T05:12:55.870Z,97686.94
2018-08-12T05:15:28.602Z,97689.20
2018-08-12T05:17:58.734Z,97682.65
2018-08-12T05:20:27.858Z,97683.06
2018-08-12T05:22:57.058Z,97689.91
2018-08-12T05:25:26.165Z,97683.81
2018-08-12T05:27:55.606Z,97686.80
2018-08-12T05:30:24.807Z,97684.91
2018-08-12T05:32:53.988Z,97692.59
2018-08-12T05:35:23.034Z,97691.44
2018-08-12T05:37:52.129Z,97693.39
2018-08-12T05:40:22.115Z,97688.92
2018-08-12T05:42:51.161Z,97692.33
2018-08-12T05:45:20.230Z,97695.16
2018-08-12T05:47:49.450Z,97695.81
2018-08-12T05:50:22.019Z,97695.62
2018-08-12T05:52:51.175Z,97693.44
2018-08-12T05:55:24.225Z,97696.59
2018-08-12T05:57:53.468Z,97688.14
2018-08-12T06:00:22.636Z,97688.54
2018-08-12T06:02:51.890Z,97687.55
2018-08-12T06:05:21.758Z,97680.58
2018-08-12T06:07:50.903Z,97682.43
2018-08-12T06:10:24.420Z,97681.70
2018-08-12T06:12:53.637Z,97679.04
2018-08-12T06:15:23.011Z,97683.98
2018-08-12T06:17:52.158Z,97683.75
2018-08-12T06:20:25.587Z,97682.25
2018-08-12T06:22:54.670Z,97685.67
2018-08-12T06:25:24.320Z,97676.69
2018-08-12T06:27:53.518Z,97684.69
2018-08-12T06:30:23.609Z,97694.42
2018-08-12T06:32:52.916Z,97683.60
2018-08-12T06:35:24.881Z,97684.80
2018-08-12T06:37:54.026Z,97687.86
2018-08-12T06:40:23.198Z,97688.50
2018-08-12T06:42:52.672Z,97693.05
2018-08-12T06:45:21.973Z,97695.09
2018-08-12T06:47:51.621Z,97697.58
2018-08-12T06:50:22.871Z,97689.53
2018-08-12T06:52:51.967Z,97697.05
2018-08-12T06:55:21.057Z,97702.16
2018-08-12T06:57:50.246Z,97699.02
2018-08-12T07:00:20.817Z,97696.98
2018-08-12T07:02:50.418Z,97700.06
2018-08-12T07:05:21.408Z,97699.17
2018-08-12T07:07:50.631Z,97699.08
2018-08-12T07:10:22.602Z,97696.30
2018-08-12T07:12:51.671Z,97695.37
2018-08-12T07:15:21.921Z,97689.77
2018-08-12T07:17:50.938Z,97692.34
2018-08-12T07:20:22.180Z,97695.99
2018-08-12T07:22:51.259Z,97695.33
2018-08-12T07:25:20.549Z,97699.13
2018-08-12T07:27:49.705Z,97702.23
2018-08-12T07:30:22.225Z,97698.34
2018-08-12T07:32:51.439Z,97695.98
2018-08-12T07:35:21.031Z,97694.52
2018-08-12T07:37:50.014Z,97701.11
2018-08-12T07:40:22.421Z,97703.16
2018-08-12T07:42:52.052Z,97700.17
2018-08-12T07:45:21.315Z,97708.80
2018-08-12T07:47:50.535Z,97711.16
2018-08-12T07:50:22.215Z,97705.75
2018-08-12T07:52:51.295Z,97720.38
2018-08-12T07:55:20.472Z,97715.33
2018-08-12T07:57:49.786Z,97714.92
2018-08-12T08:00:22.117Z,97721.63
2018-08-12T08:02:51.430Z,97717.73
2018-08-12T08:05:22.509Z,97721.73
2018-08-12T08:07:51.643Z,97723.61
2018-08-12T08:10:23.035Z,97716.59
2018-08-12T08:12:52.211Z,97721.78
2018-08-12T08:15:22.779Z,97719.92
2018-08-12T08:17:51.981Z,97716.82
2018-08-12T08:20:24.421Z,97723.28
2018-08-12T08:22:54.570Z,97728.94
2018-08-12T08:25:24.324Z,97719.58
2018-08-12T08:27:53.327Z,97714.41
2018-08-12T08:30:23.470Z,97719.20
2018-08-12T08:32:53.045Z,97719.61
2018-08-12T08:35:22.300Z,97725.23
2018-08-12T08:37:52.041Z,97720.54
2018-08-12T08:40:25.689Z,97720.33
2018-08-12T08:42:56.074Z,97713.81
2018-08-12T08:45:25.221Z,97718.81
2018-08-12T08:47:54.614Z,97722.81
2018-08-12T08:50:23.894Z,97724.23
2018-08-12T08:52:53.199Z,97720.41
2018-08-12T08:55:22.177Z,97714.55
2018-08-12T09:00:38.403Z,97715.41
2018-08-12T09:03:07.612Z,97718.42
2018-08-12T09:05:36.702Z,97718.92
2018-08-12T09:08:06.163Z,97717.78
2018-08-12T09:10:35.153Z,97717.02
2018-08-12T09:13:04.320Z,97715.16
2018-08-12T09:15:33.378Z,97722.86
2018-08-12T09:18:02.430Z,97723.20
2018-08-12T09:20:31.582Z,97717.32
2018-08-12T09:23:00.633Z,97708.02
2018-08-12T09:25:29.692Z,97707.62
2018-08-12T09:27:58.680Z,97701.84
2018-08-12T09:30:27.879Z,97706.69
2018-08-12T09:32:56.939Z,97704.88
2018-08-12T09:35:25.941Z,97704.06
2018-08-12T09:37:55.029Z,97708.00
2018-08-12T09:40:24.210Z,97706.19
2018-08-12T09:42:53.321Z,97694.55
2018-08-12T09:45:22.783Z,97698.55
2018-08-12T09:47:51.886Z,97696.22
2018-08-12T09:50:22.162Z,97700.95
2018-08-12T09:53:10.891Z,97705.66
2018-08-12T09:55:41.248Z,97697.83
2018-08-12T09:58:11.414Z,97700.21
2018-08-12T10:00:41.609Z,97697.83
2018-08-12T10:03:11.932Z,97691.99
2018-08-12T10:05:41.732Z,97693.00
2018-08-12T10:08:11.815Z,97695.36
2018-08-12T10:10:41.359Z,97691.13
2018-08-12T10:13:11.466Z,97692.50
2018-08-12T10:15:41.626Z,97690.72
2018-08-12T10:18:12.345Z,97695.15
2018-08-12T10:20:42.363Z,97683.80
2018-08-12T10:26:05.478Z,97680.91
2018-08-12T10:28:34.727Z,97678.25
2018-08-12T10:31:03.858Z,97674.50
2018-08-12T10:33:32.896Z,97677.25
2018-08-12T10:36:01.965Z,97672.27
2018-08-12T10:38:31.009Z,97669.74
2018-08-12T10:40:59.992Z,97666.39
2018-08-12T10:43:29.040Z,97668.04
2018-08-12T10:45:58.119Z,97653.27
2018-08-12T10:48:27.174Z,97662.23
2018-08-12T10:50:56.265Z,97652.92
2018-08-12T10:53:25.503Z,97656.40
2018-08-12T10:55:54.708Z,97651.20
2018-08-12T10:58:23.940Z,97640.67
2018-08-12T11:00:53.336Z,97634.52
2018-08-12T11:03:22.459Z,97634.70
2018-08-12T11:05:52.256Z,97637.92
2018-08-12T11:08:21.595Z,97640.52
2018-08-12T11:10:50.907Z,97642.11
2018-08-12T11:13:20.103Z,97637.70
2018-08-12T11:15:59.326Z,97634.91
2018-08-12T11:18:29.183Z,97629.34
2018-08-12T11:20:58.304Z,97625.45
2018-08-12T11:23:27.325Z,97631.42
2018-08-12T11:25:56.348Z,97634.91
2018-08-12T11:28:25.362Z,97624.16
2018-08-12T11:30:54.492Z,97623.46
2018-08-12T11:33:23.527Z,97620.86
2018-08-12T11:35:52.781Z,97612.25
2018-08-12T11:38:21.870Z,97620.39
2018-08-12T11:40:50.865Z,97620.27
2018-08-12T11:43:20.009Z,97613.13
2018-08-12T11:45:49.086Z,97612.73
2018-08-12T11:48:18.202Z,97608.39
2018-08-12T11:50:47.309Z,97600.97
2018-08-12T11:53:16.490Z,97600.39
2018-08-12T11:55:46.022Z,97595.89
2018-08-12T11:58:14.987Z,97597.78
2018-08-12T12:00:44.142Z,97594.59
2018-08-12T12:03:14.156Z,97594.96
2018-08-12T12:05:43.537Z,97588.39
2018-08-12T12:08:13.372Z,97598.97
2018-08-12T12:10:42.369Z,97592.30
2018-08-12T12:13:11.830Z,97595.77
2018-08-12T12:15:42.040Z,97599.72
2018-08-12T12:18:11.751Z,97589.28
2018-08-12T12:20:40.867Z,97585.78
2018-08-12T12:23:10.281Z,97581.73
2018-08-12T12:25:39.425Z,97587.75
2018-08-12T12:28:09.184Z,97584.31
2018-08-12T12:30:38.369Z,97582.78
2018-08-12T12:33:07.831Z,97588.88
2018-08-12T12:35:37.025Z,97572.45
2018-08-12T12:38:06.074Z,97571.08
2018-08-12T12:40:35.078Z,97566.19
2018-08-12T12:43:04.391Z,97562.39
2018-08-12T12:45:33.898Z,97571.76
2018-08-12T12:48:02.938Z,97571.19
2018-08-12T12:50:31.890Z,97568.00
2018-08-12T12:53:01.204Z,97559.35
2018-08-12T12:55:30.833Z,97558.14
2018-08-12T12:57:59.971Z,97558.39
2018-08-12T13:00:30.181Z,97552.31
2018-08-12T13:02:59.181Z,97548.91
2018-08-12T13:05:28.137Z,97542.48
2018-08-12T13:07:57.309Z,97538.48
2018-08-12T13:10:26.586Z,97535.22
2018-08-12T13:12:55.891Z,97536.92
2018-08-12T13:15:24.983Z,97532.46
2018-08-12T13:17:54.094Z,97529.35
2018-08-12T13:20:23.168Z,97529.72
2018-08-12T13:22:55.674Z,97523.03
2018-08-12T13:31:36.373Z,97512.73
2018-08-12T13:34:05.512Z,97505.70
2018-08-12T13:36:34.522Z,97508.02
2018-08-12T13:39:03.755Z,97499.28
2018-08-12T13:41:32.653Z,97503.24
2018-08-12T13:44:01.680Z,97495.95
2018-08-12T13:46:30.760Z,97482.80
2018-08-12T13:48:59.859Z,97493.04
2018-08-12T13:51:32.580Z,97487.63
2018-08-12T13:57:48.705Z,97489.33
2018-08-12T14:00:22.305Z,97474.23
2018-08-12T14:02:52.534Z,97472.72
2018-08-12T14:05:21.723Z,97474.59
2018-08-12T14:07:51.833Z,97469.72
2018-08-12T14:10:22.391Z,97466.93
2018-08-12T14:12:51.713Z,97464.55
2018-08-12T14:15:21.115Z,97461.08
2018-08-12T14:17:51.240Z,97462.05
2018-08-12T14:20:21.846Z,97459.61
2018-08-12T14:22:51.341Z,97456.83
2018-08-12T14:25:20.367Z,97452.36
2018-08-12T14:27:49.984Z,97448.41
2018-08-12T14:30:22.803Z,97452.28
2018-08-12T14:32:52.031Z,97443.32
2018-08-12T14:35:21.115Z,97448.80
2018-08-12T14:37:50.852Z,97443.30
2018-08-12T14:40:20.830Z,97446.06
2018-08-12T14:42:50.097Z,97440.44
2018-08-12T14:45:20.519Z,97442.13
2018-08-12T14:47:50.103Z,97449.60
2018-08-12T14:50:21.594Z,97444.65
2018-08-12T14:52:51.065Z,97444.35
2018-08-12T14:55:21.262Z,97437.91
2018-08-12T14:57:50.771Z,97440.48
2018-08-12T15:00:22.413Z,97440.69
2018-08-12T15:02:52.314Z,97438.83
2018-08-12T15:05:21.565Z,97430.60
2018-08-12T15:07:51.030Z,97423.16
2018-08-12T15:10:21.016Z,97432.02
2018-08-12T15:12:50.598Z,97424.22
2018-08-12T15:15:24.185Z,97430.52
2018-08-12T15:17:53.114Z,97423.86
2018-08-12T15:20:25.326Z,97425.06
2018-08-12T15:22:54.925Z,97423.45
2018-08-12T15:25:23.975Z,97417.78
2018-08-12T15:27:52.975Z,97417.24
2018-08-12T15:30:25.012Z,97415.58
2018-08-12T15:32:54.119Z,97411.05
2018-08-12T15:41:15.051Z,97411.70
2018-08-12T15:43:44.055Z,97408.03
2018-08-12T15:46:13.053Z,97405.67
2018-08-12T15:48:42.029Z,97401.53
2018-08-12T15:51:11.161Z,97409.39
2018-08-12T15:53:40.484Z,97400.73
2018-08-12T15:56:09.664Z,97395.84
2018-08-12T15:58:38.725Z,97403.95
2018-08-12T16:01:08.083Z,97402.52
2018-08-12T16:03:37.259Z,97395.75
2018-08-12T16:06:06.355Z,97389.84
2018-08-12T16:08:35.806Z,97391.15
2018-08-12T16:11:04.971Z,97394.03
2018-08-12T16:13:33.959Z,97388.19
2018-08-12T16:16:04.613Z,97390.23
2018-08-12T16:18:52.209Z,97386.63
2018-08-12T16:21:21.606Z,97385.78
2018-08-12T16:23:50.982Z,97379.87
2018-08-12T16:26:20.186Z,97378.02
2018-08-12T16:28:50.326Z,97372.16
2018-08-12T16:42:49.638Z,97376.20
2018-08-12T16:45:19.464Z,97370.13
2018-08-12T16:47:49.290Z,97368.34
2018-08-12T16:50:19.667Z,97375.83
2018-08-12T16:52:49.140Z,97369.95
2018-08-12T16:55:20.144Z,97370.27
2018-08-12T16:57:49.768Z,97365.29
2018-08-12T17:00:20.663Z,97366.98
2018-08-12T17:02:50.268Z,97371.66
2018-08-12T17:05:21.066Z,97371.71
2018-08-12T17:07:50.977Z,97369.75
2018-08-12T17:10:20.633Z,97374.20
2018-08-12T17:12:50.212Z,97366.48
2018-08-12T17:15:20.903Z,97373.64
2018-08-12T17:17:50.769Z,97375.20
2018-08-12T17:20:23.884Z,97371.47
2018-08-12T17:22:53.137Z,97372.27
2018-08-12T17:25:22.514Z,97372.22
2018-08-12T17:27:51.535Z,97375.61
2018-08-12T17:30:20.482Z,97375.17
2018-08-12T17:32:50.092Z,97373.63
2018-08-12T17:35:19.257Z,97372.91
2018-08-12T17:37:48.783Z,97374.13
2018-08-12T17:40:26.763Z,97382.49
2018-08-12T17:42:56.794Z,97376.66
2018-08-12T17:45:25.946Z,97377.80
2018-08-12T17:47:54.958Z,97389.53
2018-08-12T17:50:24.244Z,97384.57
2018-08-12T17:52:53.294Z,97389.97
2018-08-12T17:55:22.360Z,97386.67
2018-08-12T17:57:51.605Z,97402.29
2018-08-12T18:00:20.622Z,97403.23
2018-08-12T18:02:50.126Z,97398.30
2018-08-12T18:05:19.124Z,97408.38
2018-08-12T18:07:49.195Z,97412.49
2018-08-12T18:10:18.766Z,97411.62
2018-08-12T18:12:48.281Z,97410.36
2018-08-12T18:15:17.475Z,97415.73
2018-08-12T18:17:46.679Z,97418.72
2018-08-12T18:20:17.606Z,97423.06
2018-08-12T18:22:46.630Z,97432.04
2018-08-12T18:25:18.043Z,97433.94
2018-08-12T18:27:47.569Z,97432.55
2018-08-12T18:30:18.342Z,97430.45
2018-08-12T18:32:47.670Z,97430.03
2018-08-12T18:35:18.291Z,97433.36
2018-08-12T18:37:47.733Z,97429.47
2018-08-12T18:40:28.441Z,97432.70
2018-08-12T18:43:04.662Z,97441.59
2018-08-12T18:45:48.223Z,97444.25
2018-08-12T18:48:49.950Z,97440.10
2018-08-12T18:51:19.431Z,97450.94
2018-08-12T18:53:48.841Z,97445.41
2018-08-12T18:56:18.304Z,97447.38
2018-08-12T18:58:48.483Z,97452.69
2018-08-12T19:01:17.679Z,97457.29
2018-08-12T19:03:51.873Z,97455.55
2018-08-12T19:06:22.277Z,97464.31
2018-08-12T19:08:51.575Z,97459.70
2018-08-12T19:11:23.153Z,97465.78
2018-08-12T19:13:52.818Z,97467.84
2018-08-12T19:16:22.100Z,97470.47
2018-08-12T19:18:51.813Z,97469.19
2018-08-12T19:21:21.626Z,97470.59
2018-08-12T19:24:18.545Z,97479.80
2018-08-12T19:27:07.016Z,97474.28
2018-08-12T19:29:40.372Z,97470.49
2018-08-12T19:32:14.224Z,97468.09
2018-08-12T19:34:46.269Z,97467.98
2018-08-12T19:37:15.631Z,97471.31
2018-08-12T19:39:45.088Z,97471.08
2018-08-12T19:42:16.368Z,97473.95
2018-08-12T19:44:45.763Z,97476.15
2018-08-12T19:50:35.885Z,97475.66
2018-08-12T19:53:23.594Z,97481.38
2018-08-12T19:56:15.659Z,97482.45
2018-08-12T19:58:51.228Z,97484.95
2018-08-12T20:01:36.845Z,97482.15
2018-08-12T20:04:06.670Z,97488.82
2018-08-12T20:06:50.984Z,97492.23
2018-08-12T20:09:49.774Z,97489.33
2018-08-12T20:12:19.059Z,97484.33
2018-08-12T20:15:03.764Z,97488.70
2018-08-12T20:17:33.140Z,97482.17
2018-08-12T20:20:39.197Z,97461.31
2018-08-12T20:23:36.289Z,97477.34
2018-08-12T20:26:05.814Z,97484.23
2018-08-12T20:28:35.570Z,97494.21
2018-08-12T20:31:07.992Z,97487.83
2018-08-12T20:33:57.244Z,97496.84
2018-08-12T20:36:26.922Z,97493.37
2018-08-12T20:39:38.219Z,97501.63
2018-08-12T20:42:34.688Z,97511.13
2018-08-12T20:45:03.988Z,97512.56
2018-08-12T20:47:33.482Z,97518.57
2018-08-12T20:50:02.690Z,97518.62
2018-08-12T20:55:31.808Z,97512.27
2018-08-12T20:58:01.520Z,97520.16
2018-08-12T21:01:01.015Z,97520.38
2018-08-12T21:03:30.691Z,97522.24
2018-08-12T21:06:00.003Z,97525.89
2018-08-12T21:08:29.318Z,97522.50
2018-08-12T21:10:58.307Z,97527.63
2018-08-12T21:13:27.837Z,97520.94
2018-08-12T21:15:59.417Z,97521.47
2018-08-12T21:18:28.651Z,97528.34
2018-08-12T21:20:58.151Z,97519.56
2018-08-12T21:23:27.783Z,97527.85
2018-08-12T21:25:57.252Z,97517.69
2018-08-12T21:28:36.706Z,97511.58
2018-08-12T21:31:06.928Z,97512.72
2018-08-12T21:33:36.250Z,97516.28
2018-08-12T21:36:05.828Z,97512.48
2018-08-12T21:38:37.420Z,97519.92
2018-08-12T21:41:18.801Z,97520.89
2018-08-12T21:43:48.988Z,97523.04
2018-08-12T21:46:26.925Z,97529.61
2018-08-12T21:48:56.123Z,97524.21
2018-08-12T21:51:25.275Z,97517.11
2018-08-12T21:53:55.051Z,97517.59
2018-08-12T21:56:24.284Z,97517.27
2018-08-12T22:01:43.111Z,97521.23
2018-08-12T22:04:12.194Z,97516.55
2018-08-12T22:11:18.916Z,97517.78
2018-08-12T22:13:50.519Z,97518.75
2018-08-12T22:16:19.635Z,97526.17
2018-08-12T22:18:49.426Z,97524.07
2018-08-12T22:21:43.951Z,97520.50
2018-08-12T22:27:08.960Z,97521.89
2018-08-12T22:29:48.831Z,97513.26
2018-08-12T22:32:18.578Z,97516.72
2018-08-12T22:34:48.278Z,97519.24
2018-08-12T22:37:30.636Z,97522.72
2018-08-12T22:40:00.691Z,97530.53
2018-08-12T22:42:30.706Z,97530.47
2018-08-12T22:45:13.076Z,97524.81
2018-08-12T22:47:56.041Z,97523.83
2018-08-12T22:53:11.989Z,97523.02
2018-08-12T22:55:41.285Z,97520.17
2018-08-12T22:58:14.904Z,97521.93
2018-08-12T23:00:44.278Z,97508.85
2018-08-12T23:03:13.540Z,97509.41
2018-08-12T23:05:55.354Z,97507.14
2018-08-12T23:08:32.473Z,97495.27
2018-08-12T23:11:16.753Z,97503.34
2018-08-12T23:13:53.567Z,97493.80
2018-08-12T23:16:35.623Z,97494.60
2018-08-12T23:19:34.241Z,97492.19
2018-08-12T23:22:09.444Z,97491.73
2018-08-12T23:24:39.158Z,97501.25
2018-08-12T23:27:08.677Z,97508.83
2018-08-12T23:30:03.514Z,97504.25
2018-08-12T23:32:32.736Z,97492.20
2018-08-12T23:35:01.850Z,97498.53
2018-08-12T23:37:31.086Z,97493.33
2018-08-12T23:40:01.353Z,97493.17
2018-08-12T23:42:30.582Z,97489.23
2018-08-12T23:45:00.127Z,97483.94
2018-08-12T23:47:29.368Z,97477.25
2018-08-12T23:49:58.479Z,97487.84
2018-08-12T23:52:27.844Z,97488.31
2018-08-12T23:55:08.747Z,97486.85
2018-08-12T23:57:53.941Z,97468.22
